sensor_id;sensor_type;location;lat;lon;timestamp;pressure;altitude;pressure_sealevel;temperature;humidity
34081;BME280;20358;50.272;19.026;2023-03-14T00:01:11;96769.16;;;8.66;44.56
34081;BME280;20358;50.272;19.026;2023-03-14T00:04:19;96767.88;;;8.70;44.92
34081;BME280;20358;50.272;19.026;2023-03-14T00:07:28;96756.66;;;8.68;45.40
34081;BME280;20358;50.272;19.026;2023-03-14T00:10:36;96735.22;;;8.63;45.62
34081;BME280;20358;50.272;19.026;2023-03-14T00:13:43;96731.91;;;8.61;45.95
34081;BME280;20358;50.272;19.026;2023-03-14T00:16:51;96705.19;;;8.56;45.64
34081;BME280;20358;50.272;19.026;2023-03-14T00:19:58;96691.47;;;8.52;45.46
34081;BME280;20358;50.272;19.026;2023-03-14T00:23:09;96678.75;;;8.48;45.43
34081;BME280;20358;50.272;19.026;2023-03-14T00:26:18;96664.38;;;8.42;45.61
34081;BME280;20358;50.272;19.026;2023-03-14T00:29:25;96663.25;;;8.45;45.89
34081;BME280;20358;50.272;19.026;2023-03-14T00:32:32;96671.53;;;8.50;45.99
34081;BME280;20358;50.272;19.026;2023-03-14T00:35:38;96659.63;;;8.46;45.78
34081;BME280;20358;50.272;19.026;2023-03-14T00:38:49;96652.19;;;8.51;45.85
34081;BME280;20358;50.272;19.026;2023-03-14T00:41:56;96644.69;;;8.56;44.84
34081;BME280;20358;50.272;19.026;2023-03-14T00:45:05;96628.59;;;8.59;45.37
34081;BME280;20358;50.272;19.026;2023-03-14T00:48:12;96611.16;;;8.58;44.73
34081;BME280;20358;50.272;19.026;2023-03-14T00:51:18;96608.09;;;8.63;45.49
34081;BME280;20358;50.272;19.026;2023-03-14T00:54:27;96632.44;;;8.65;45.15
34081;BME280;20358;50.272;19.026;2023-03-14T00:57:33;96624.03;;;8.61;44.66
34081;BME280;20358;50.272;19.026;2023-03-14T01:00:39;96625.78;;;8.70;44.91
34081;BME280;20358;50.272;19.026;2023-03-14T01:04:20;96617.59;;;8.73;45.25
34081;BME280;20358;50.272;19.026;2023-03-14T01:07:26;96620.91;;;8.75;45.28
34081;BME280;20358;50.272;19.026;2023-03-14T01:10:37;96623.69;;;8.74;45.71
34081;BME280;20358;50.272;19.026;2023-03-14T01:13:44;96623.44;;;8.67;44.69
34081;BME280;20358;50.272;19.026;2023-03-14T01:16:50;96622.47;;;8.68;44.77
34081;BME280;20358;50.272;19.026;2023-03-14T01:19:56;96612.22;;;8.65;45.61
34081;BME280;20358;50.272;19.026;2023-03-14T01:23:02;96602.28;;;8.59;44.97
34081;BME280;20358;50.272;19.026;2023-03-14T01:26:14;96579.47;;;8.50;45.78
34081;BME280;20358;50.272;19.026;2023-03-14T01:29:21;96555.97;;;8.39;45.67
34081;BME280;20358;50.272;19.026;2023-03-14T01:32:28;96552.28;;;8.32;45.18
34081;BME280;20358;50.272;19.026;2023-03-14T01:35:33;96547.28;;;8.29;46.15
34081;BME280;20358;50.272;19.026;2023-03-14T01:38:41;96543.84;;;8.28;45.43
34081;BME280;20358;50.272;19.026;2023-03-14T01:41:52;96540.38;;;8.28;45.69
34081;BME280;20358;50.272;19.026;2023-03-14T01:44:59;96536.78;;;8.29;45.88
34081;BME280;20358;50.272;19.026;2023-03-14T01:48:08;96536.78;;;8.29;45.95
34081;BME280;20358;50.272;19.026;2023-03-14T01:51:18;96529.84;;;8.28;45.19
34081;BME280;20358;50.272;19.026;2023-03-14T01:54:32;96531.69;;;8.27;45.99
34081;BME280;20358;50.272;19.026;2023-03-14T01:57:49;96524.59;;;8.28;45.51
34081;BME280;20358;50.272;19.026;2023-03-14T02:00:59;96529.56;;;8.31;45.73
34081;BME280;20358;50.272;19.026;2023-03-14T02:04:09;96529.56;;;8.31;46.17
34081;BME280;20358;50.272;19.026;2023-03-14T02:07:20;96522.66;;;8.30;45.68
34081;BME280;20358;50.272;19.026;2023-03-14T02:10:43;96531.53;;;8.29;46.00
34081;BME280;20358;50.272;19.026;2023-03-14T02:13:58;96528.22;;;8.27;45.71
34081;BME280;20358;50.272;19.026;2023-03-14T02:17:06;96539.97;;;8.23;45.99
34081;BME280;20358;50.272;19.026;2023-03-14T02:20:38;96532.41;;;8.20;46.15
34081;BME280;20358;50.272;19.026;2023-03-14T02:24:02;96532.97;;;8.14;45.52
34081;BME280;20358;50.272;19.026;2023-03-14T02:27:22;96538.78;;;8.08;45.55
34081;BME280;20358;50.272;19.026;2023-03-14T02:30:31;96537.00;;;7.98;45.92
34081;BME280;20358;50.272;19.026;2023-03-14T02:33:38;96531.34;;;7.93;45.52
34081;BME280;20358;50.272;19.026;2023-03-14T02:36:46;96497.28;;;7.92;46.45
34081;BME280;20358;50.272;19.026;2023-03-14T02:39:52;96491.63;;;7.96;46.67
34081;BME280;20358;50.272;19.026;2023-03-14T02:43:02;96492.31;;;7.98;46.35
34081;BME280;20358;50.272;19.026;2023-03-14T02:46:12;96504.47;;;7.99;45.93
34081;BME280;20358;50.272;19.026;2023-03-14T02:49:25;96503.25;;;7.94;45.97
34081;BME280;20358;50.272;19.026;2023-03-14T02:52:35;96512.22;;;7.91;46.66
34081;BME280;20358;50.272;19.026;2023-03-14T02:55:45;96514.44;;;7.86;46.46
34081;BME280;20358;50.272;19.026;2023-03-14T02:58:56;96529.97;;;7.80;47.25
34081;BME280;20358;50.272;19.026;2023-03-14T03:02:16;96524.88;;;7.69;47.43
34081;BME280;20358;50.272;19.026;2023-03-14T03:05:22;96521.97;;;7.62;47.92
34081;BME280;20358;50.272;19.026;2023-03-14T03:08:29;96515.34;;;7.58;46.73
34081;BME280;20358;50.272;19.026;2023-03-14T03:11:35;96511.63;;;7.51;46.94
34081;BME280;20358;50.272;19.026;2023-03-14T03:14:46;96511.22;;;7.46;48.31
34081;BME280;20358;50.272;19.026;2023-03-14T03:17:52;96510.66;;;7.43;47.54
34081;BME280;20358;50.272;19.026;2023-03-14T03:21:00;96511.91;;;7.38;48.03
34081;BME280;20358;50.272;19.026;2023-03-14T03:24:06;96517.59;;;7.34;47.77
34081;BME280;20358;50.272;19.026;2023-03-14T03:27:12;96520.34;;;7.32;48.25
34081;BME280;20358;50.272;19.026;2023-03-14T03:30:21;96523.38;;;7.28;48.12
34081;BME280;20358;50.272;19.026;2023-03-14T03:33:27;96527.94;;;7.26;48.48
34081;BME280;20358;50.272;19.026;2023-03-14T03:36:33;96561.66;;;7.30;47.76
34081;BME280;20358;50.272;19.026;2023-03-14T03:39:40;96594.84;;;7.31;48.56
34081;BME280;20358;50.272;19.026;2023-03-14T03:42:47;96589.44;;;7.33;47.40
34081;BME280;20358;50.272;19.026;2023-03-14T03:45:56;96599.66;;;7.36;47.36
34081;BME280;20358;50.272;19.026;2023-03-14T03:49:02;96602.72;;;7.41;47.57
34081;BME280;20358;50.272;19.026;2023-03-14T03:52:09;96590.00;;;7.46;47.64
34081;BME280;20358;50.272;19.026;2023-03-14T03:55:15;96585.84;;;7.53;47.26
34081;BME280;20358;50.272;19.026;2023-03-14T03:58:22;96583.50;;;7.60;47.28
34081;BME280;20358;50.272;19.026;2023-03-14T04:01:30;96568.44;;;7.62;47.36
34081;BME280;20358;50.272;19.026;2023-03-14T04:04:37;96554.19;;;7.64;47.01
34081;BME280;20358;50.272;19.026;2023-03-14T04:07:43;96548.38;;;7.61;47.43
34081;BME280;20358;50.272;19.026;2023-03-14T04:10:55;96551.41;;;7.56;47.71
34081;BME280;20358;50.272;19.026;2023-03-14T04:14:19;96553.22;;;7.65;47.51
34081;BME280;20358;50.272;19.026;2023-03-14T04:17:45;96542.00;;;7.63;47.07
34081;BME280;20358;50.272;19.026;2023-03-14T04:20:52;96547.66;;;7.68;47.99
34081;BME280;20358;50.272;19.026;2023-03-14T04:24:04;96539.09;;;7.66;47.54
34081;BME280;20358;50.272;19.026;2023-03-14T04:27:10;96539.09;;;7.66;47.24
34081;BME280;20358;50.272;19.026;2023-03-14T04:30:19;96537.72;;;7.72;47.64
34081;BME280;20358;50.272;19.026;2023-03-14T04:33:34;96540.19;;;7.73;46.85
34081;BME280;20358;50.272;19.026;2023-03-14T04:36:41;96543.66;;;7.83;47.11
34081;BME280;20358;50.272;19.026;2023-03-14T04:39:52;96523.03;;;7.88;47.77
34081;BME280;20358;50.272;19.026;2023-03-14T04:43:06;96519.44;;;7.89;46.84
34081;BME280;20358;50.272;19.026;2023-03-14T04:46:16;96502.03;;;7.88;47.12
34081;BME280;20358;50.272;19.026;2023-03-14T04:49:26;96492.88;;;7.92;47.54
34081;BME280;20358;50.272;19.026;2023-03-14T04:52:31;96480.41;;;7.94;46.89
34081;BME280;20358;50.272;19.026;2023-03-14T04:55:38;96479.16;;;7.98;47.45
34081;BME280;20358;50.272;19.026;2023-03-14T04:58:43;96480.13;;;7.97;46.97
34081;BME280;20358;50.272;19.026;2023-03-14T05:01:52;96487.06;;;7.98;46.27
34081;BME280;20358;50.272;19.026;2023-03-14T05:05:23;96485.09;;;8.00;46.39
34081;BME280;20358;50.272;19.026;2023-03-14T05:08:41;96475.69;;;8.08;46.36
34081;BME280;20358;50.272;19.026;2023-03-14T05:11:57;96467.53;;;8.11;46.52
34081;BME280;20358;50.272;19.026;2023-03-14T05:15:47;96465.44;;;8.14;46.99
34081;BME280;20358;50.272;19.026;2023-03-14T05:19:12;96449.78;;;8.13;46.67
34081;BME280;20358;50.272;19.026;2023-03-14T05:23:11;96456.81;;;8.22;45.76
34081;BME280;20358;50.272;19.026;2023-03-14T05:26:27;96453.75;;;8.26;46.81
34081;BME280;20358;50.272;19.026;2023-03-14T05:30:17;96441.81;;;8.32;46.19
34081;BME280;20358;50.272;19.026;2023-03-14T05:33:26;96442.22;;;8.37;45.52
34081;BME280;20358;50.272;19.026;2023-03-14T05:37:11;96450.19;;;8.45;46.70
34081;BME280;20358;50.272;19.026;2023-03-14T05:40:44;96460.56;;;8.46;46.39
34081;BME280;20358;50.272;19.026;2023-03-14T05:44:10;96453.88;;;8.52;46.52
34081;BME280;20358;50.272;19.026;2023-03-14T05:47:44;96460.22;;;8.59;46.01
34081;BME280;20358;50.272;19.026;2023-03-14T05:51:07;96452.03;;;8.62;46.26
34081;BME280;20358;50.272;19.026;2023-03-14T05:54:33;96445.78;;;8.63;45.47
34081;BME280;20358;50.272;19.026;2023-03-14T05:57:57;96435.81;;;8.67;45.49
34081;BME280;20358;50.272;19.026;2023-03-14T06:01:30;96436.78;;;8.66;44.98
34081;BME280;20358;50.272;19.026;2023-03-14T06:04:53;96431.44;;;8.75;45.37
34081;BME280;20358;50.272;19.026;2023-03-14T06:07:59;96417.44;;;8.75;45.70
34081;BME280;20358;50.272;19.026;2023-03-14T06:11:07;96409.81;;;8.81;45.24
34081;BME280;20358;50.272;19.026;2023-03-14T06:14:16;96425.28;;;8.84;45.36
34081;BME280;20358;50.272;19.026;2023-03-14T06:17:24;96423.50;;;8.85;45.20
34081;BME280;20358;50.272;19.026;2023-03-14T06:20:37;96421.00;;;8.83;45.14
34081;BME280;20358;50.272;19.026;2023-03-14T06:23:48;96412.13;;;8.84;44.78
34081;BME280;20358;50.272;19.026;2023-03-14T06:26:54;96415.13;;;8.89;45.55
34081;BME280;20358;50.272;19.026;2023-03-14T06:30:05;96407.25;;;8.89;45.82
34081;BME280;20358;50.272;19.026;2023-03-14T06:33:12;96397.22;;;8.93;45.94
34081;BME280;20358;50.272;19.026;2023-03-14T06:36:18;96393.78;;;8.92;45.81
34081;BME280;20358;50.272;19.026;2023-03-14T06:39:24;96387.16;;;8.88;45.41
34081;BME280;20358;50.272;19.026;2023-03-14T06:42:39;96387.03;;;8.90;44.95
34081;BME280;20358;50.272;19.026;2023-03-14T06:45:48;96381.44;;;8.93;45.63
34081;BME280;20358;50.272;19.026;2023-03-14T06:48:54;96368.81;;;8.96;45.61
34081;BME280;20358;50.272;19.026;2023-03-14T06:52:01;96370.13;;;9.00;45.80
34081;BME280;20358;50.272;19.026;2023-03-14T06:55:08;96370.91;;;9.10;45.26
34081;BME280;20358;50.272;19.026;2023-03-14T06:58:14;96368.94;;;9.12;44.64
34081;BME280;20358;50.272;19.026;2023-03-14T07:01:26;96362.75;;;9.21;45.15
34081;BME280;20358;50.272;19.026;2023-03-14T07:04:45;96371.03;;;9.27;44.38
34081;BME280;20358;50.272;19.026;2023-03-14T07:07:52;96375.38;;;9.36;44.58
34081;BME280;20358;50.272;19.026;2023-03-14T07:10:58;96372.81;;;9.44;44.17
34081;BME280;20358;50.272;19.026;2023-03-14T07:14:05;96383.09;;;9.55;44.35
34081;BME280;20358;50.272;19.026;2023-03-14T07:17:14;96391.72;;;9.65;44.89
34081;BME280;20358;50.272;19.026;2023-03-14T07:20:21;96384.53;;;9.75;44.42
34081;BME280;20358;50.272;19.026;2023-03-14T07:23:27;96387.16;;;9.75;43.76
34081;BME280;20358;50.272;19.026;2023-03-14T07:26:34;96396.75;;;9.84;44.48
34081;BME280;20358;50.272;19.026;2023-03-14T07:29:40;96401.22;;;9.92;43.47
34081;BME280;20358;50.272;19.026;2023-03-14T07:32:49;96389.59;;;10.02;43.35
34081;BME280;20358;50.272;19.026;2023-03-14T07:35:58;96405.44;;;10.10;43.22
34081;BME280;20358;50.272;19.026;2023-03-14T07:39:05;96427.56;;;10.17;43.21
34081;BME280;20358;50.272;19.026;2023-03-14T07:43:01;96422.66;;;10.22;43.68
34081;BME280;20358;50.272;19.026;2023-03-14T07:46:21;96401.25;;;10.25;43.61
34081;BME280;20358;50.272;19.026;2023-03-14T07:49:29;96423.78;;;10.20;43.38
34081;BME280;20358;50.272;19.026;2023-03-14T07:52:35;96424.00;;;10.26;43.08
34081;BME280;20358;50.272;19.026;2023-03-14T07:55:41;96429.28;;;10.26;43.28
34081;BME280;20358;50.272;19.026;2023-03-14T07:58:47;96416.63;;;10.38;43.39
34081;BME280;20358;50.272;19.026;2023-03-14T08:01:53;96410.56;;;10.54;43.67
34081;BME280;20358;50.272;19.026;2023-03-14T08:05:02;96402.03;;;10.68;43.06
34081;BME280;20358;50.272;19.026;2023-03-14T08:08:09;96416.25;;;10.83;42.64
34081;BME280;20358;50.272;19.026;2023-03-14T08:11:16;96420.56;;;10.92;42.40
34081;BME280;20358;50.272;19.026;2023-03-14T08:14:21;96402.09;;;10.92;42.21
34081;BME280;20358;50.272;19.026;2023-03-14T08:17:28;96413.28;;;10.78;42.46
34081;BME280;20358;50.272;19.026;2023-03-14T08:20:37;96418.22;;;10.81;42.46
34081;BME280;20358;50.272;19.026;2023-03-14T08:23:44;96418.56;;;10.78;42.32
34081;BME280;20358;50.272;19.026;2023-03-14T08:26:49;96426.97;;;10.81;42.61
34081;BME280;20358;50.272;19.026;2023-03-14T08:29:56;96427.63;;;10.75;42.80
34081;BME280;20358;50.272;19.026;2023-03-14T08:33:02;96421.69;;;10.73;42.59
34081;BME280;20358;50.272;19.026;2023-03-14T08:36:12;96412.09;;;10.72;42.42
34081;BME280;20358;50.272;19.026;2023-03-14T08:39:18;96414.25;;;10.85;42.65
34081;BME280;20358;50.272;19.026;2023-03-14T08:42:24;96416.88;;;10.77;42.57
34081;BME280;20358;50.272;19.026;2023-03-14T08:45:30;96420.56;;;10.84;42.82
34081;BME280;20358;50.272;19.026;2023-03-14T08:48:36;96425.16;;;10.90;42.69
34081;BME280;20358;50.272;19.026;2023-03-14T08:51:44;96433.44;;;11.03;43.12
34081;BME280;20358;50.272;19.026;2023-03-14T08:54:51;96426.34;;;11.20;42.48
34081;BME280;20358;50.272;19.026;2023-03-14T08:57:56;96421.94;;;11.28;41.99
34081;BME280;20358;50.272;19.026;2023-03-14T09:01:04;96432.16;;;11.31;42.63
34081;BME280;20358;50.272;19.026;2023-03-14T09:04:10;96437.09;;;11.34;42.58
34081;BME280;20358;50.272;19.026;2023-03-14T09:07:20;96433.81;;;11.32;42.45
34081;BME280;20358;50.272;19.026;2023-03-14T09:10:25;96435.16;;;11.36;42.79
34081;BME280;20358;50.272;19.026;2023-03-14T09:13:32;96437.44;;;11.47;42.34
34081;BME280;20358;50.272;19.026;2023-03-14T09:16:37;96444.22;;;11.42;42.26
34081;BME280;20358;50.272;19.026;2023-03-14T09:19:44;96448.50;;;11.51;42.42
34081;BME280;20358;50.272;19.026;2023-03-14T09:22:52;96467.53;;;11.54;42.07
34081;BME280;20358;50.272;19.026;2023-03-14T09:25:59;96445.38;;;11.55;42.50
34081;BME280;20358;50.272;19.026;2023-03-14T09:29:05;96466.19;;;11.75;42.04
34081;BME280;20358;50.272;19.026;2023-03-14T09:32:15;96462.22;;;11.62;42.19
34081;BME280;20358;50.272;19.026;2023-03-14T09:35:20;96437.13;;;11.50;42.37
34081;BME280;20358;50.272;19.026;2023-03-14T09:38:30;96447.34;;;11.53;42.38
34081;BME280;20358;50.272;19.026;2023-03-14T09:41:40;96443.06;;;11.60;42.47
34081;BME280;20358;50.272;19.026;2023-03-14T09:44:53;96432.47;;;11.60;42.35
34081;BME280;20358;50.272;19.026;2023-03-14T09:48:03;96443.72;;;11.54;42.25
34081;BME280;20358;50.272;19.026;2023-03-14T09:51:14;96438.44;;;11.54;42.30
34081;BME280;20358;50.272;19.026;2023-03-14T09:54:38;96459.41;;;11.64;42.42
34081;BME280;20358;50.272;19.026;2023-03-14T09:57:54;96463.22;;;11.70;42.36
34081;BME280;20358;50.272;19.026;2023-03-14T10:01:03;96467.47;;;11.79;42.51
34081;BME280;20358;50.272;19.026;2023-03-14T10:04:14;96466.50;;;11.88;41.94
34081;BME280;20358;50.272;19.026;2023-03-14T10:07:29;96479.00;;;12.02;41.76
34081;BME280;20358;50.272;19.026;2023-03-14T10:10:40;96468.44;;;12.18;41.46
34081;BME280;20358;50.272;19.026;2023-03-14T10:14:05;96466.72;;;12.33;41.46
34081;BME280;20358;50.272;19.026;2023-03-14T10:17:17;96476.84;;;12.30;41.38
34081;BME280;20358;50.272;19.026;2023-03-14T10:20:30;96489.25;;;12.29;41.77
34081;BME280;20358;50.272;19.026;2023-03-14T10:23:38;96495.84;;;12.25;41.57
34081;BME280;20358;50.272;19.026;2023-03-14T10:26:48;96492.22;;;12.26;41.62
34081;BME280;20358;50.272;19.026;2023-03-14T10:29:58;96489.25;;;12.21;41.91
34081;BME280;20358;50.272;19.026;2023-03-14T10:33:09;96487.13;;;12.00;42.49
34081;BME280;20358;50.272;19.026;2023-03-14T10:36:21;96490.94;;;11.98;42.54
34081;BME280;20358;50.272;19.026;2023-03-14T10:39:38;96478.06;;;11.79;42.62
34081;BME280;20358;50.272;19.026;2023-03-14T10:42:53;96491.59;;;11.76;43.43
34081;BME280;20358;50.272;19.026;2023-03-14T10:46:06;96486.69;;;11.64;43.49
34081;BME280;20358;50.272;19.026;2023-03-14T10:49:37;96490.81;;;11.51;43.46
34081;BME280;20358;50.272;19.026;2023-03-14T10:52:47;96486.03;;;11.38;44.21
34081;BME280;20358;50.272;19.026;2023-03-14T10:56:07;96487.50;;;11.33;44.18
34081;BME280;20358;50.272;19.026;2023-03-14T10:59:20;96484.34;;;11.37;44.29
34081;BME280;20358;50.272;19.026;2023-03-14T11:03:00;96487.31;;;11.26;44.20
34081;BME280;20358;50.272;19.026;2023-03-14T11:06:19;96487.47;;;11.25;44.59
34081;BME280;20358;50.272;19.026;2023-03-14T11:09:38;96479.50;;;11.17;44.82
34081;BME280;20358;50.272;19.026;2023-03-14T11:13:03;96488.56;;;10.98;45.02
34081;BME280;20358;50.272;19.026;2023-03-14T11:16:27;96472.03;;;10.88;45.13
34081;BME280;20358;50.272;19.026;2023-03-14T11:19:53;96483.59;;;10.87;45.33
34081;BME280;20358;50.272;19.026;2023-03-14T11:23:16;96478.28;;;10.79;46.83
34081;BME280;20358;50.272;19.026;2023-03-14T11:26:33;96482.22;;;10.75;46.89
34081;BME280;20358;50.272;19.026;2023-03-14T11:29:55;96479.69;;;10.57;47.00
34081;BME280;20358;50.272;19.026;2023-03-14T11:33:14;96491.69;;;10.43;47.80
34081;BME280;20358;50.272;19.026;2023-03-14T11:36:29;96484.59;;;10.44;48.73
34081;BME280;20358;50.272;19.026;2023-03-14T11:39:47;96474.38;;;10.15;48.46
34081;BME280;20358;50.272;19.026;2023-03-14T11:43:11;96487.00;;;10.04;48.80
34081;BME280;20358;50.272;19.026;2023-03-14T11:46:26;96467.38;;;9.72;49.87
34081;BME280;20358;50.272;19.026;2023-03-14T11:49:44;96488.66;;;9.79;49.28
34081;BME280;20358;50.272;19.026;2023-03-14T11:52:58;96486.69;;;9.81;49.89
34081;BME280;20358;50.272;19.026;2023-03-14T11:56:18;96488.66;;;9.79;49.46
34081;BME280;20358;50.272;19.026;2023-03-14T11:59:36;96480.78;;;9.87;49.28
34081;BME280;20358;50.272;19.026;2023-03-14T12:02:59;96476.59;;;10.02;49.04
34081;BME280;20358;50.272;19.026;2023-03-14T12:06:24;96462.19;;;10.14;48.89
34081;BME280;20358;50.272;19.026;2023-03-14T12:09:35;96474.66;;;10.12;48.03
34081;BME280;20358;50.272;19.026;2023-03-14T12:12:42;96469.09;;;10.15;47.58
34081;BME280;20358;50.272;19.026;2023-03-14T12:15:54;96475.72;;;10.19;48.12
34081;BME280;20358;50.272;19.026;2023-03-14T12:19:30;96462.50;;;10.11;47.85
34081;BME280;20358;50.272;19.026;2023-03-14T12:22:46;96454.22;;;10.06;47.90
34081;BME280;20358;50.272;19.026;2023-03-14T12:26:13;96439.97;;;9.91;48.60
34081;BME280;20358;50.272;19.026;2023-03-14T12:29:22;96458.09;;;9.94;48.54
34081;BME280;20358;50.272;19.026;2023-03-14T12:32:28;96470.13;;;9.71;48.90
34081;BME280;20358;50.272;19.026;2023-03-14T12:35:37;96472.41;;;9.66;49.46
34081;BME280;20358;50.272;19.026;2023-03-14T12:39:13;96481.81;;;9.68;49.58
34081;BME280;20358;50.272;19.026;2023-03-14T12:42:43;96472.63;;;9.72;49.80
34081;BME280;20358;50.272;19.026;2023-03-14T12:46:19;96460.47;;;9.79;49.52
34081;BME280;20358;50.272;19.026;2023-03-14T12:49:30;96453.34;;;9.72;49.73
34081;BME280;20358;50.272;19.026;2023-03-14T12:56:45;96443.69;;;9.80;49.86
34081;BME280;20358;50.272;19.026;2023-03-14T13:00:18;96443.88;;;9.87;50.43
34081;BME280;20358;50.272;19.026;2023-03-14T13:03:37;96445.97;;;10.01;50.76
34081;BME280;20358;50.272;19.026;2023-03-14T13:06:51;96452.81;;;9.94;50.53
34081;BME280;20358;50.272;19.026;2023-03-14T13:10:18;96452.03;;;9.76;51.60
34081;BME280;20358;50.272;19.026;2023-03-14T13:13:28;96435.81;;;9.63;51.86
34081;BME280;20358;50.272;19.026;2023-03-14T13:16:36;96445.56;;;9.62;52.37
34081;BME280;20358;50.272;19.026;2023-03-14T13:19:43;96445.03;;;9.59;53.33
34081;BME280;20358;50.272;19.026;2023-03-14T13:22:56;96459.97;;;9.33;53.49
34081;BME280;20358;50.272;19.026;2023-03-14T13:26:03;96465.16;;;9.25;54.56
34081;BME280;20358;50.272;19.026;2023-03-14T13:29:21;96446.13;;;9.31;54.77
34081;BME280;20358;50.272;19.026;2023-03-14T13:32:29;96453.81;;;9.42;54.13
34081;BME280;20358;50.272;19.026;2023-03-14T13:35:40;96469.28;;;9.45;53.69
34081;BME280;20358;50.272;19.026;2023-03-14T13:38:56;96468.53;;;9.35;54.55
34081;BME280;20358;50.272;19.026;2023-03-14T13:42:04;96475.56;;;9.26;54.94
34081;BME280;20358;50.272;19.026;2023-03-14T13:45:14;96468.66;;;8.98;55.45
34081;BME280;20358;50.272;19.026;2023-03-14T13:48:26;96481.13;;;9.05;56.06
34081;BME280;20358;50.272;19.026;2023-03-14T13:51:34;96478.97;;;9.18;56.13
34081;BME280;20358;50.272;19.026;2023-03-14T13:54:40;96476.38;;;9.27;56.15
34081;BME280;20358;50.272;19.026;2023-03-14T13:57:48;96478.34;;;9.25;55.64
34081;BME280;20358;50.272;19.026;2023-03-14T14:01:04;96494.66;;;9.46;55.65
34081;BME280;20358;50.272;19.026;2023-03-14T14:04:18;96489.38;;;9.46;55.83
34081;BME280;20358;50.272;19.026;2023-03-14T14:07:28;96490.59;;;9.51;55.68
34081;BME280;20358;50.272;19.026;2023-03-14T14:10:37;96485.09;;;9.45;56.48
34081;BME280;20358;50.272;19.026;2023-03-14T14:13:44;96479.53;;;9.48;56.83
34081;BME280;20358;50.272;19.026;2023-03-14T14:16:54;96486.75;;;9.46;57.15
34081;BME280;20358;50.272;19.026;2023-03-14T14:20:06;96477.19;;;9.45;57.45
34081;BME280;20358;50.272;19.026;2023-03-14T14:23:20;96461.75;;;9.50;57.20
34081;BME280;20358;50.272;19.026;2023-03-14T14:26:31;96471.00;;;9.54;57.15
34081;BME280;20358;50.272;19.026;2023-03-14T14:29:37;96458.88;;;9.61;56.78
34081;BME280;20358;50.272;19.026;2023-03-14T14:32:48;96450.84;;;9.62;57.48
34081;BME280;20358;50.272;19.026;2023-03-14T14:35:57;96450.19;;;9.68;57.15
34081;BME280;20358;50.272;19.026;2023-03-14T14:39:15;96442.44;;;9.67;56.68
34081;BME280;20358;50.272;19.026;2023-03-14T14:42:27;96452.69;;;9.70;57.61
34081;BME280;20358;50.272;19.026;2023-03-14T14:45:36;96441.97;;;9.71;57.47
34081;BME280;20358;50.272;19.026;2023-03-14T14:48:45;96443.47;;;9.74;57.22
34081;BME280;20358;50.272;19.026;2023-03-14T14:52:01;96446.13;;;9.74;57.39
34081;BME280;20358;50.272;19.026;2023-03-14T14:55:17;96449.34;;;9.68;57.03
34081;BME280;20358;50.272;19.026;2023-03-14T14:58:26;96439.66;;;9.68;57.88
34081;BME280;20358;50.272;19.026;2023-03-14T15:01:35;96440.19;;;9.72;57.74
34081;BME280;20358;50.272;19.026;2023-03-14T15:04:47;96432.09;;;9.73;57.40
34081;BME280;20358;50.272;19.026;2023-03-14T15:07:52;96440.22;;;9.80;57.20
34081;BME280;20358;50.272;19.026;2023-03-14T15:11:00;96438.91;;;9.84;57.51
34081;BME280;20358;50.272;19.026;2023-03-14T15:14:06;96447.84;;;9.83;57.03
34081;BME280;20358;50.272;19.026;2023-03-14T15:17:13;96455.56;;;9.84;57.85
34081;BME280;20358;50.272;19.026;2023-03-14T15:20:21;96465.28;;;9.84;57.23
34081;BME280;20358;50.272;19.026;2023-03-14T15:23:27;96450.78;;;9.80;57.11
34081;BME280;20358;50.272;19.026;2023-03-14T15:26:33;96444.38;;;9.82;57.53
34081;BME280;20358;50.272;19.026;2023-03-14T15:29:40;96428.38;;;9.84;57.33
34081;BME280;20358;50.272;19.026;2023-03-14T15:32:46;96438.56;;;9.79;56.94
34081;BME280;20358;50.272;19.026;2023-03-14T15:35:55;96423.88;;;9.76;57.36
34081;BME280;20358;50.272;19.026;2023-03-14T15:39:05;96423.75;;;9.78;57.03
34081;BME280;20358;50.272;19.026;2023-03-14T15:42:12;96418.78;;;9.75;56.51
34081;BME280;20358;50.272;19.026;2023-03-14T15:45:18;96418.44;;;9.70;56.47
34081;BME280;20358;50.272;19.026;2023-03-14T15:48:24;96410.00;;;9.66;57.01
34081;BME280;20358;50.272;19.026;2023-03-14T15:51:32;96404.19;;;9.63;57.45
34081;BME280;20358;50.272;19.026;2023-03-14T15:54:39;96403.41;;;9.62;56.89
34081;BME280;20358;50.272;19.026;2023-03-14T15:57:44;96398.22;;;9.53;56.79
34081;BME280;20358;50.272;19.026;2023-03-14T16:00:52;96398.50;;;9.50;57.37
34081;BME280;20358;50.272;19.026;2023-03-14T16:03:57;96369.88;;;9.47;57.57
34081;BME280;20358;50.272;19.026;2023-03-14T16:07:07;96378.38;;;9.41;57.05
34081;BME280;20358;50.272;19.026;2023-03-14T16:10:15;96382.00;;;9.40;57.51
34081;BME280;20358;50.272;19.026;2023-03-14T16:13:21;96377.84;;;9.37;56.75
34081;BME280;20358;50.272;19.026;2023-03-14T16:16:27;96387.72;;;9.35;56.13
34081;BME280;20358;50.272;19.026;2023-03-14T16:19:33;96386.22;;;9.33;56.68
34081;BME280;20358;50.272;19.026;2023-03-14T16:22:42;96400.38;;;9.32;56.54
34081;BME280;20358;50.272;19.026;2023-03-14T16:25:48;96409.56;;;9.28;57.42
34081;BME280;20358;50.272;19.026;2023-03-14T16:28:54;96425.38;;;9.28;56.87
34081;BME280;20358;50.272;19.026;2023-03-14T16:32:00;96444.78;;;9.27;56.83
34081;BME280;20358;50.272;19.026;2023-03-14T16:35:07;96441.09;;;9.19;57.00
34081;BME280;20358;50.272;19.026;2023-03-14T16:38:16;96445.69;;;9.17;57.41
34081;BME280;20358;50.272;19.026;2023-03-14T16:41:22;96446.25;;;9.11;57.50
34081;BME280;20358;50.272;19.026;2023-03-14T16:44:33;96444.09;;;9.07;57.27
34081;BME280;20358;50.272;19.026;2023-03-14T16:47:38;96467.31;;;9.11;56.92
34081;BME280;20358;50.272;19.026;2023-03-14T16:50:45;96462.53;;;9.07;57.45
34081;BME280;20358;50.272;19.026;2023-03-14T16:53:53;96462.44;;;8.99;57.23
34081;BME280;20358;50.272;19.026;2023-03-14T16:57:00;96462.91;;;8.94;58.16